createdAt,value
2022-09-03T00:00:52.421Z,15.70
2022-09-03T00:04:06.996Z,12.80
2022-09-03T00:07:15.610Z,15.50
2022-09-03T00:10:26.553Z,13.70
2022-09-03T00:13:36.736Z,14.80
2022-09-03T00:16:49.545Z,12.20
2022-09-03T00:19:57.962Z,13.00
2022-09-03T00:23:04.112Z,13.90
2022-09-03T00:26:12.482Z,17.10
2022-09-03T00:29:21.814Z,15.90
2022-09-03T00:32:34.141Z,11.70
2022-09-03T00:36:03.696Z,13.20
2022-09-03T00:39:07.429Z,12.80
2022-09-03T00:42:31.538Z,15.10
2022-09-03T00:46:07.281Z,12.90
2022-09-03T00:49:28.295Z,18.40
2022-09-03T00:52:48.474Z,11.00
2022-09-03T00:55:58.841Z,9.80
2022-09-03T00:59:18.113Z,22.00
2022-09-03T01:02:22.591Z,15.40
2022-09-03T01:05:27.489Z,18.60
2022-09-03T01:08:51.677Z,14.80
2022-09-03T01:12:18.479Z,13.10
2022-09-03T01:15:34.562Z,13.10
2022-09-03T01:18:49.026Z,14.70
2022-09-03T01:22:06.962Z,14.90
2022-09-03T01:25:24.235Z,18.40
2022-09-03T01:28:54.946Z,15.70
2022-09-03T01:32:07.822Z,16.40
2022-09-03T01:35:28.208Z,15.00
2022-09-03T01:38:48.495Z,13.70
2022-09-03T01:42:20.762Z,14.60
2022-09-03T01:45:41.871Z,12.30
2022-09-03T01:49:07.558Z,12.70
2022-09-03T01:52:27.364Z,10.70
2022-09-03T01:55:37.050Z,17.10
2022-09-03T01:58:39.207Z,15.00
2022-09-03T02:01:58.982Z,16.80
2022-09-03T02:05:10.441Z,16.50
2022-09-03T02:11:14.225Z,14.50
2022-09-03T02:14:16.165Z,15.20
2022-09-03T02:17:18.422Z,17.30
2022-09-03T02:20:23.225Z,14.70
2022-09-03T02:23:28.233Z,16.30
2022-09-03T02:26:30.343Z,17.70
2022-09-03T02:29:32.996Z,14.30
2022-09-03T02:32:34.864Z,16.80
2022-09-03T02:35:36.859Z,15.70
2022-09-03T02:38:42.135Z,17.40
2022-09-03T02:41:45.005Z,13.50
2022-09-03T02:44:50.399Z,16.80
2022-09-03T02:47:56.408Z,17.80
2022-09-03T02:50:58.500Z,17.10
2022-09-03T02:54:00.203Z,15.20
2022-09-03T02:57:02.872Z,18.20
2022-09-03T03:00:05.110Z,16.20
2022-09-03T03:03:07.305Z,16.60
2022-09-03T03:06:09.429Z,16.20
2022-09-03T03:09:11.534Z,16.50
2022-09-03T03:12:13.369Z,15.10
2022-09-03T03:15:15.954Z,14.00
2022-09-03T03:18:17.879Z,15.10
2022-09-03T03:21:19.963Z,16.30
2022-09-03T03:24:21.737Z,21.20
2022-09-03T03:27:24.024Z,17.30
2022-09-03T03:30:25.780Z,22.60
2022-09-03T03:33:27.516Z,15.10
2022-09-03T03:36:32.037Z,13.90
2022-09-03T03:39:33.828Z,17.90
2022-09-03T03:42:35.747Z,15.70
2022-09-03T03:45:37.645Z,22.40
2022-09-03T03:48:39.804Z,18.30
2022-09-03T03:51:41.653Z,16.20
2022-09-03T03:54:43.330Z,17.50
2022-09-03T03:57:44.980Z,21.40
2022-09-03T04:00:49.733Z,15.90
2022-09-03T04:03:52.270Z,17.40
2022-09-03T04:06:56.634Z,19.80
2022-09-03T04:09:58.439Z,17.70
2022-09-03T04:13:01.257Z,16.90
2022-09-03T04:16:07.094Z,18.20
2022-09-03T04:19:08.952Z,17.70
2022-09-03T04:22:10.875Z,17.60
2022-09-03T04:25:12.654Z,19.50
2022-09-03T04:28:15.288Z,18.10
2022-09-03T04:31:19.657Z,17.90
2022-09-03T04:34:21.906Z,20.00
2022-09-03T04:37:23.742Z,23.70
2022-09-03T04:40:25.508Z,20.70
2022-09-03T04:43:28.776Z,17.50
2022-09-03T04:46:33.491Z,20.40
2022-09-03T04:49:35.805Z,20.30
2022-09-03T04:52:38.563Z,18.40
2022-09-03T04:55:40.229Z,20.60
2022-09-03T04:58:44.116Z,17.70
2022-09-03T05:01:46.077Z,16.60
2022-09-03T05:04:48.038Z,16.70
2022-09-03T05:07:49.872Z,16.30
2022-09-03T05:11:00.067Z,16.80
2022-09-03T05:14:01.984Z,19.00
2022-09-03T05:17:03.880Z,18.20
2022-09-03T05:20:10.200Z,18.00
2022-09-03T05:23:11.916Z,19.00
2022-09-03T05:26:16.119Z,23.10
2022-09-03T05:29:20.017Z,18.60
2022-09-03T05:32:21.906Z,19.40
2022-09-03T05:35:26.066Z,21.00
2022-09-03T05:38:32.393Z,18.40
2022-09-03T05:41:34.740Z,17.80
2022-09-03T05:44:37.119Z,19.00
2022-09-03T05:47:40.307Z,21.50
2022-09-03T05:50:42.165Z,23.00
2022-09-03T05:53:47.501Z,23.70
2022-09-03T05:56:49.886Z,19.70
2022-09-03T05:59:52.653Z,18.30
2022-09-03T06:02:54.745Z,20.20
2022-09-03T06:05:56.667Z,21.00
2022-09-03T06:09:00.695Z,19.30
2022-09-03T06:12:03.988Z,21.90
2022-09-03T06:15:07.063Z,20.70
2022-09-03T06:18:08.838Z,21.50
2022-09-03T06:21:10.705Z,21.10
2022-09-03T06:24:28.350Z,21.60
2022-09-03T06:27:30.841Z,23.50
2022-09-03T06:30:32.538Z,22.00
2022-09-03T06:33:36.233Z,20.30
2022-09-03T06:36:38.019Z,22.20
2022-09-03T06:39:39.973Z,20.00
2022-09-03T06:42:45.858Z,19.70
2022-09-03T06:46:00.512Z,17.10
2022-09-03T06:49:02.904Z,18.20
2022-09-03T06:52:04.779Z,18.60
2022-09-03T06:55:07.014Z,16.50
2022-09-03T06:58:09.377Z,18.20
2022-09-03T07:01:17.197Z,15.30
2022-09-03T07:04:20.166Z,18.90
2022-09-03T07:07:22.408Z,19.00
2022-09-03T07:10:24.438Z,21.50
2022-09-03T07:13:26.833Z,17.40
2022-09-03T07:16:37.244Z,16.40
2022-09-03T07:19:39.247Z,18.70
2022-09-03T07:22:40.950Z,18.90
2022-09-03T07:25:42.721Z,19.00
2022-09-03T07:28:46.076Z,19.30
2022-09-03T07:31:51.397Z,14.80
2022-09-03T07:34:53.903Z,16.80
2022-09-03T07:37:55.557Z,17.90
2022-09-03T07:41:00.125Z,19.00
2022-09-03T07:44:05.636Z,18.50
2022-09-03T07:47:07.453Z,17.70
2022-09-03T07:50:09.435Z,18.90
2022-09-03T07:53:11.169Z,22.10
2022-09-03T07:56:13.177Z,18.70
2022-09-03T07:59:14.898Z,18.30
2022-09-03T08:02:16.566Z,16.30
2022-09-03T08:05:21.361Z,18.50
2022-09-03T08:08:23.926Z,17.70
2022-09-03T08:11:26.376Z,19.80
2022-09-03T08:14:30.520Z,15.80
2022-09-03T08:17:32.178Z,18.10
2022-09-03T08:20:34.343Z,16.30
2022-09-03T08:23:40.199Z,17.70
2022-09-03T08:26:46.227Z,15.90
2022-09-03T08:29:52.239Z,18.80
2022-09-03T08:32:56.228Z,16.30
2022-09-03T08:35:58.139Z,17.20
2022-09-03T08:39:08.171Z,14.70
2022-09-03T08:42:21.959Z,14.90
2022-09-03T08:45:24.063Z,20.90
2022-09-03T08:48:28.408Z,17.40
2022-09-03T08:51:32.094Z,14.50
2022-09-03T08:54:33.854Z,14.00
2022-09-03T08:57:41.983Z,17.50
2022-09-03T09:00:48.963Z,13.60
2022-09-03T09:04:07.069Z,13.50
2022-09-03T09:07:18.813Z,15.80
2022-09-03T09:10:29.395Z,13.50
2022-09-03T09:14:00.300Z,14.50
2022-09-03T09:17:23.443Z,17.00
2022-09-03T09:21:07.929Z,17.00
2022-09-03T09:24:19.486Z,15.70
2022-09-03T09:27:21.857Z,17.80
2022-09-03T09:30:23.887Z,48.40
2022-09-03T09:33:26.054Z,24.90
2022-09-03T09:36:28.549Z,27.20
2022-09-03T09:39:32.062Z,18.50
2022-09-03T09:42:33.941Z,15.00
2022-09-03T09:45:35.906Z,15.90
2022-09-03T09:48:39.528Z,23.00
2022-09-03T09:51:41.331Z,14.80
2022-09-03T09:54:48.090Z,18.20
2022-09-03T09:57:53.721Z,16.00
2022-09-03T10:01:00.236Z,15.60
2022-09-03T10:04:10.816Z,16.50
2022-09-03T10:07:33.800Z,15.60
2022-09-03T10:10:43.229Z,16.10
2022-09-03T10:13:48.858Z,23.60
2022-09-03T10:17:04.397Z,34.80
2022-09-03T10:20:31.163Z,20.30
2022-09-03T10:23:43.782Z,18.70
2022-09-03T10:26:46.613Z,17.70
2022-09-03T10:29:49.014Z,17.80
2022-09-03T10:33:05.572Z,18.90
2022-09-03T10:36:20.246Z,15.60
2022-09-03T10:39:27.938Z,15.90
2022-09-03T10:42:45.755Z,15.90
2022-09-03T10:46:08.337Z,17.20
2022-09-03T10:49:31.126Z,18.70
2022-09-03T10:52:45.050Z,14.50
2022-09-03T10:56:02.500Z,10.90
2022-09-03T10:59:34.233Z,12.60
2022-09-03T11:02:53.317Z,16.90
2022-09-03T11:06:06.489Z,16.20
2022-09-03T11:09:14.314Z,18.50
2022-09-03T11:12:47.119Z,14.50
2022-09-03T11:15:52.549Z,14.60
2022-09-03T11:18:58.061Z,13.80
2022-09-03T11:21:59.940Z,15.20
2022-09-03T11:25:02.717Z,14.70
2022-09-03T11:28:21.247Z,12.00
2022-09-03T11:32:00.526Z,18.80
2022-09-03T11:35:02.374Z,16.50
2022-09-03T11:38:21.259Z,12.70
2022-09-03T11:41:35.021Z,13.00
2022-09-03T11:44:51.374Z,12.00
2022-09-03T11:47:54.366Z,18.30
2022-09-03T11:50:56.163Z,17.10
2022-09-03T11:54:11.460Z,14.00
2022-09-03T11:57:24.179Z,16.40
2022-09-03T12:00:26.512Z,17.30
2022-09-03T12:03:36.513Z,17.20
2022-09-03T12:06:56.922Z,15.80
2022-09-03T12:10:01.650Z,17.60
2022-09-03T12:13:17.457Z,15.20
2022-09-03T12:16:37.727Z,18.30
2022-09-03T12:19:56.918Z,13.90
2022-09-03T12:22:58.548Z,15.60
2022-09-03T12:26:07.234Z,14.60
2022-09-03T12:29:22.692Z,20.90
2022-09-03T12:32:38.412Z,18.50
2022-09-03T12:39:13.404Z,15.70
2022-09-03T12:42:21.269Z,16.10
2022-09-03T12:45:25.251Z,16.80
2022-09-03T12:48:27.488Z,17.40
2022-09-03T12:51:54.238Z,16.20
2022-09-03T12:55:00.956Z,15.90
2022-09-03T12:58:14.008Z,16.90
2022-09-03T13:01:45.361Z,16.90
2022-09-03T13:07:53.149Z,14.50
2022-09-03T13:10:57.573Z,15.70
2022-09-03T13:14:06.260Z,18.40
2022-09-03T13:17:10.805Z,14.90
2022-09-03T13:20:25.101Z,14.30
2022-09-03T13:23:53.310Z,13.10
2022-09-03T13:27:25.307Z,15.50
2022-09-03T13:30:40.352Z,16.00
2022-09-03T13:33:45.663Z,13.00
2022-09-03T13:36:57.723Z,13.20
2022-09-03T13:40:04.347Z,13.90
2022-09-03T13:43:21.931Z,14.80
2022-09-03T13:46:52.794Z,15.10
2022-09-03T13:50:22.655Z,13.70
2022-09-03T13:53:42.681Z,14.90
2022-09-03T13:57:08.054Z,15.20
2022-09-03T14:00:12.663Z,21.20
2022-09-03T14:03:37.215Z,14.30
2022-09-03T14:07:03.228Z,12.20
2022-09-03T14:10:11.778Z,13.30
2022-09-03T14:13:25.215Z,10.90
2022-09-03T14:16:36.495Z,13.00
2022-09-03T14:19:49.421Z,17.10
2022-09-03T14:22:59.640Z,16.20
2022-09-03T14:26:04.401Z,18.70
2022-09-03T14:29:12.512Z,10.60
2022-09-03T14:32:30.788Z,13.30
2022-09-03T14:35:51.408Z,16.30
2022-09-03T14:39:24.475Z,13.60
2022-09-03T14:42:53.476Z,14.60
2022-09-03T14:46:06.814Z,12.40
2022-09-03T14:49:49.939Z,17.40
2022-09-03T14:53:00.041Z,20.70
2022-09-03T14:56:18.563Z,32.00
2022-09-03T14:59:47.613Z,14.20
2022-09-03T15:03:13.964Z,15.70
2022-09-03T15:06:53.673Z,13.90
2022-09-03T15:10:13.825Z,13.20
2022-09-03T15:13:23.099Z,15.60
2022-09-03T15:16:38.682Z,13.10
2022-09-03T15:19:56.048Z,14.00
2022-09-03T15:23:42.596Z,14.90
2022-09-03T15:27:09.777Z,16.50
2022-09-03T15:30:13.604Z,14.70
2022-09-03T15:33:36.029Z,14.30
2022-09-03T15:36:41.781Z,18.10
2022-09-03T15:39:45.134Z,17.20
2022-09-03T15:42:48.835Z,16.70
2022-09-03T15:46:01.136Z,15.80
2022-09-03T15:49:21.774Z,13.30
2022-09-03T15:52:47.666Z,15.40
2022-09-03T15:56:19.194Z,13.90
2022-09-03T15:59:33.338Z,16.20
2022-09-03T16:02:52.441Z,18.00
2022-09-03T16:06:02.350Z,14.10
2022-09-03T16:09:27.200Z,15.90
2022-09-03T16:12:35.036Z,19.90
2022-09-03T16:15:44.106Z,14.10
2022-09-03T16:18:57.833Z,15.50
2022-09-03T16:22:02.305Z,18.60
2022-09-03T16:25:38.774Z,14.70
2022-09-03T16:28:59.301Z,15.10
2022-09-03T16:32:17.429Z,14.10
2022-09-03T16:35:28.329Z,13.50
2022-09-03T16:38:55.297Z,20.30
2022-09-03T16:42:25.148Z,15.20
2022-09-03T16:46:08.878Z,15.40
2022-09-03T16:49:18.342Z,13.70
2022-09-03T16:52:59.350Z,15.70
2022-09-03T16:56:16.370Z,16.40
2022-09-03T16:59:33.435Z,16.40
2022-09-03T17:02:59.069Z,18.10
2022-09-03T17:06:38.635Z,19.00
2022-09-03T17:10:11.105Z,16.20
2022-09-03T17:13:31.881Z,21.10
2022-09-03T17:16:42.628Z,24.80
2022-09-03T17:19:51.653Z,20.80
2022-09-03T17:23:19.860Z,18.80
2022-09-03T17:26:29.996Z,19.00
2022-09-03T17:29:50.662Z,24.70
2022-09-03T17:33:27.692Z,18.50
2022-09-03T17:36:31.432Z,19.30
2022-09-03T17:39:54.370Z,20.70
2022-09-03T17:43:03.651Z,19.20
2022-09-03T17:46:08.518Z,26.90
2022-09-03T17:49:17.430Z,22.20
2022-09-03T17:52:29.728Z,23.50
2022-09-03T17:55:42.332Z,24.30
2022-09-03T17:58:51.257Z,25.20
2022-09-03T18:01:59.127Z,21.60
2022-09-03T18:05:07.642Z,23.40
2022-09-03T18:08:19.202Z,24.30
2022-09-03T18:11:43.435Z,24.50
2022-09-03T18:14:51.794Z,22.00
2022-09-03T18:18:08.046Z,25.40
2022-09-03T18:21:32.071Z,22.00
2022-09-03T18:25:02.789Z,23.90
2022-09-03T18:28:26.345Z,22.30
2022-09-03T18:31:46.865Z,20.80
2022-09-03T18:35:07.381Z,21.30
2022-09-03T18:38:28.317Z,20.70
2022-09-03T18:42:06.763Z,23.10
2022-09-03T18:49:58.988Z,22.70
2022-09-03T18:53:29.665Z,19.90
2022-09-03T18:57:07.094Z,21.30
2022-09-03T19:00:31.153Z,20.00
2022-09-03T19:04:03.957Z,25.20
2022-09-03T19:07:30.305Z,21.50
2022-09-03T19:11:26.589Z,21.30
2022-09-03T19:15:10.138Z,23.60
2022-09-03T19:18:58.715Z,21.80
2022-09-03T19:22:27.061Z,21.20
2022-09-03T19:25:49.131Z,25.60
2022-09-03T19:29:15.763Z,22.60
2022-09-03T19:32:39.403Z,23.40
2022-09-03T19:36:13.723Z,20.80
2022-09-03T19:39:59.550Z,23.80
2022-09-03T19:43:41.263Z,22.90
2022-09-03T19:47:01.478Z,24.40
2022-09-03T19:50:40.688Z,24.20
2022-09-03T19:54:01.176Z,23.70
2022-09-03T19:57:22.085Z,23.70
2022-09-03T20:00:42.601Z,24.60
2022-09-03T20:04:03.551Z,25.60
2022-09-03T20:07:27.809Z,28.20
2022-09-03T20:10:29.545Z,22.60
2022-09-03T20:13:52.073Z,24.30
2022-09-03T20:17:10.278Z,25.10
2022-09-03T20:20:18.029Z,23.90
2022-09-03T20:23:33.043Z,24.20
2022-09-03T20:26:42.241Z,24.90
2022-09-03T20:30:19.716Z,24.80
2022-09-03T20:33:32.691Z,22.30
2022-09-03T20:36:49.755Z,24.60
2022-09-03T20:39:57.571Z,22.80
2022-09-03T20:43:05.394Z,25.80
2022-09-03T20:46:10.000Z,26.70
2022-09-03T20:49:19.061Z,23.60
2022-09-03T20:52:41.170Z,24.10
2022-09-03T20:55:45.259Z,25.40
2022-09-03T20:59:17.225Z,25.20
2022-09-03T21:02:37.914Z,25.30
2022-09-03T21:05:58.507Z,23.00
2022-09-03T21:09:20.991Z,24.70
2022-09-03T21:12:41.634Z,23.20
2022-09-03T21:15:50.321Z,26.50
2022-09-03T21:19:32.238Z,24.00
2022-09-03T21:22:48.738Z,23.60
2022-09-03T21:26:21.618Z,24.00
2022-09-03T21:29:29.711Z,25.60
2022-09-03T21:32:40.014Z,24.90
2022-09-03T21:35:50.751Z,24.10
2022-09-03T21:39:07.926Z,23.90
2022-09-03T21:42:36.624Z,23.80
2022-09-03T21:45:43.902Z,27.70
2022-09-03T21:49:00.861Z,26.50
2022-09-03T21:52:09.224Z,24.10
2022-09-03T21:55:42.052Z,24.80
2022-09-03T21:59:16.741Z,24.20
2022-09-03T22:02:25.615Z,24.80
2022-09-03T22:05:46.655Z,25.20
2022-09-03T22:08:59.390Z,23.70
2022-09-03T22:12:33.321Z,25.90
2022-09-03T22:15:38.380Z,25.20
2022-09-03T22:18:40.193Z,25.10
2022-09-03T22:22:00.002Z,26.80
2022-09-03T22:25:09.340Z,25.10
2022-09-03T22:28:18.093Z,26.70
2022-09-03T22:31:39.305Z,28.40
2022-09-03T22:34:44.371Z,24.10
2022-09-03T22:38:13.581Z,24.90
2022-09-03T22:41:34.830Z,28.40
2022-09-03T22:45:00.653Z,28.40
2022-09-03T22:48:19.939Z,26.40
2022-09-03T22:51:22.121Z,26.60
2022-09-03T22:54:37.026Z,26.10
2022-09-03T22:57:46.534Z,27.00
2022-09-03T23:01:18.952Z,27.30
2022-09-03T23:04:42.161Z,26.30
2022-09-03T23:07:54.835Z,26.50
2022-09-03T23:11:03.907Z,27.50
2022-09-03T23:14:09.861Z,27.70
2022-09-03T23:20:34.858Z,28.60
2022-09-03T23:23:41.129Z,30.50
2022-09-03T23:26:52.580Z,29.00
2022-09-03T23:32:59.143Z,29.20
2022-09-03T23:36:08.473Z,27.00
2022-09-03T23:39:35.769Z,29.70
2022-09-03T23:42:49.023Z,29.70
2022-09-03T23:46:04.025Z,30.00
2022-09-03T23:49:16.859Z,27.70
2022-09-03T23:52:38.046Z,29.80
2022-09-03T23:55:58.858Z,27.90
2022-09-03T23:59:40.783Z,29.90
